createdAt,value
2018-11-13T00:00:26.323Z,100.00
2018-11-13T00:02:57.379Z,100.00
2018-11-13T00:05:27.512Z,100.00
2018-11-13T00:07:56.838Z,100.00
2018-11-13T00:10:26.853Z,100.00
2018-11-13T00:12:56.943Z,100.00
2018-11-13T00:15:26.706Z,100.00
2018-11-13T00:17:56.118Z,100.00
2018-11-13T00:20:26.480Z,100.00
2018-11-13T00:22:55.973Z,100.00
2018-11-13T00:25:25.508Z,100.00
2018-11-13T00:27:55.005Z,100.00
2018-11-13T00:30:25.587Z,100.00
2018-11-13T00:32:55.006Z,100.00
2018-11-13T00:35:24.744Z,100.00
2018-11-13T00:37:54.615Z,100.00
2018-11-13T00:40:24.163Z,100.00
2018-11-13T00:42:53.657Z,100.00
2018-11-13T00:45:23.650Z,100.00
2018-11-13T00:47:53.068Z,100.00
2018-11-13T00:50:22.581Z,100.00
2018-11-13T00:52:52.076Z,100.00
2018-11-13T00:55:21.609Z,100.00
2018-11-13T00:57:51.088Z,100.00
2018-11-13T01:00:21.541Z,100.00
2018-11-13T01:02:51.006Z,100.00
2018-11-13T01:05:21.571Z,100.00
2018-11-13T01:07:52.004Z,100.00
2018-11-13T01:10:22.339Z,100.00
2018-11-13T01:12:52.300Z,100.00
2018-11-13T01:15:21.755Z,100.00
2018-11-13T01:17:51.501Z,100.00
2018-11-13T01:20:21.351Z,100.00
2018-11-13T01:22:51.511Z,100.00
2018-11-13T01:25:20.970Z,100.00
2018-11-13T01:27:50.507Z,100.00
2018-11-13T01:30:20.152Z,100.00
2018-11-13T01:32:49.378Z,100.00
2018-11-13T01:35:19.406Z,100.00
2018-11-13T01:37:48.983Z,100.00
2018-11-13T01:40:20.170Z,100.00
2018-11-13T01:42:49.560Z,100.00
2018-11-13T01:45:20.050Z,100.00
2018-11-13T01:47:49.612Z,100.00
2018-11-13T01:50:19.765Z,100.00
2018-11-13T01:52:49.585Z,100.00
2018-11-13T01:55:18.929Z,100.00
2018-11-13T01:57:48.259Z,100.00
2018-11-13T02:00:20.030Z,100.00
2018-11-13T02:02:51.203Z,100.00
2018-11-13T02:05:22.101Z,100.00
2018-11-13T02:07:53.342Z,100.00
2018-11-13T02:10:22.956Z,100.00
2018-11-13T02:12:53.285Z,100.00
2018-11-13T02:15:23.188Z,100.00
2018-11-13T02:17:52.695Z,100.00
2018-11-13T02:20:22.798Z,100.00
2018-11-13T02:22:52.279Z,100.00
2018-11-13T02:25:22.210Z,100.00
2018-11-13T02:27:51.706Z,100.00
2018-11-13T02:30:22.725Z,100.00
2018-11-13T02:32:52.575Z,100.00
2018-11-13T02:35:22.113Z,100.00
2018-11-13T02:37:51.971Z,100.00
2018-11-13T02:40:21.495Z,100.00
2018-11-13T02:42:51.462Z,100.00
2018-11-13T02:45:21.139Z,100.00
2018-11-13T02:47:50.820Z,100.00
2018-11-13T02:50:21.751Z,100.00
2018-11-13T02:52:51.017Z,100.00
2018-11-13T02:55:21.426Z,100.00
2018-11-13T02:57:50.700Z,100.00
2018-11-13T03:00:21.479Z,100.00
2018-11-13T03:02:51.344Z,100.00
2018-11-13T03:05:22.112Z,100.00
2018-11-13T03:07:51.580Z,100.00
2018-11-13T03:10:21.745Z,100.00
2018-11-13T03:12:51.231Z,100.00
2018-11-13T03:15:21.915Z,100.00
2018-11-13T03:17:51.152Z,100.00
2018-11-13T03:20:21.213Z,100.00
2018-11-13T03:22:52.354Z,100.00
2018-11-13T03:25:23.621Z,100.00
2018-11-13T03:27:53.938Z,100.00
2018-11-13T03:30:25.755Z,100.00
2018-11-13T03:32:55.451Z,100.00
2018-11-13T03:35:25.523Z,100.00
2018-11-13T03:37:55.683Z,100.00
2018-11-13T03:40:25.135Z,100.00
2018-11-13T03:42:55.314Z,100.00
2018-11-13T03:45:25.415Z,100.00
2018-11-13T03:47:54.655Z,100.00
2018-11-13T03:50:24.813Z,100.00
2018-11-13T03:52:54.350Z,100.00
2018-11-13T03:55:24.325Z,100.00
2018-11-13T03:57:53.770Z,100.00
2018-11-13T04:00:24.232Z,100.00
2018-11-13T04:02:53.581Z,100.00
2018-11-13T04:05:23.371Z,100.00
2018-11-13T04:07:54.297Z,100.00
2018-11-13T04:10:24.639Z,100.00
2018-11-13T04:12:53.859Z,100.00
2018-11-13T04:15:24.742Z,100.00
2018-11-13T04:17:54.773Z,100.00
2018-11-13T04:20:24.464Z,100.00
2018-11-13T04:22:53.666Z,100.00
2018-11-13T04:25:23.079Z,100.00
2018-11-13T04:27:52.519Z,100.00
2018-11-13T04:30:22.012Z,100.00
2018-11-13T04:32:51.521Z,100.00
2018-11-13T04:35:20.743Z,100.00
2018-11-13T04:37:49.959Z,100.00
2018-11-13T04:40:20.962Z,100.00
2018-11-13T04:42:52.279Z,100.00
2018-11-13T04:45:23.794Z,100.00
2018-11-13T04:47:53.734Z,100.00
2018-11-13T04:50:23.810Z,100.00
2018-11-13T04:52:53.742Z,100.00
2018-11-13T04:55:24.225Z,100.00
2018-11-13T04:57:53.965Z,100.00
2018-11-13T05:00:24.300Z,100.00
2018-11-13T05:02:54.081Z,100.00
2018-11-13T05:05:23.541Z,100.00
2018-11-13T05:07:54.239Z,100.00
2018-11-13T05:10:25.452Z,100.00
2018-11-13T05:12:54.702Z,100.00
2018-11-13T05:15:24.406Z,100.00
2018-11-13T05:17:54.131Z,100.00
2018-11-13T05:20:23.410Z,100.00
2018-11-13T05:22:53.127Z,100.00
2018-11-13T05:25:22.586Z,100.00
2018-11-13T05:27:52.172Z,100.00
2018-11-13T05:30:22.773Z,100.00
2018-11-13T05:32:52.759Z,100.00
2018-11-13T05:35:23.063Z,100.00
2018-11-13T05:37:52.598Z,100.00
2018-11-13T05:40:23.398Z,100.00
2018-11-13T05:42:53.064Z,100.00
2018-11-13T05:45:24.012Z,100.00
2018-11-13T05:47:53.714Z,100.00
2018-11-13T05:50:23.656Z,100.00
2018-11-13T05:52:54.310Z,100.00
2018-11-13T05:55:25.062Z,100.00
2018-11-13T05:57:54.775Z,100.00
2018-11-13T06:00:29.483Z,100.00
2018-11-13T06:02:59.656Z,100.00
2018-11-13T06:05:30.278Z,100.00
2018-11-13T06:08:00.801Z,100.00
2018-11-13T06:10:30.710Z,100.00
2018-11-13T06:13:00.206Z,100.00
2018-11-13T06:15:29.926Z,100.00
2018-11-13T06:17:59.662Z,100.00
2018-11-13T06:20:29.156Z,100.00
2018-11-13T06:22:59.460Z,100.00
2018-11-13T06:25:30.447Z,100.00
2018-11-13T06:27:59.668Z,100.00
2018-11-13T06:30:29.206Z,100.00
2018-11-13T06:32:58.674Z,100.00
2018-11-13T06:35:28.313Z,100.00
2018-11-13T06:37:57.721Z,100.00
2018-11-13T06:40:27.246Z,100.00
2018-11-13T06:42:56.682Z,100.00
2018-11-13T06:45:27.052Z,100.00
2018-11-13T06:47:56.510Z,100.00
2018-11-13T06:50:26.090Z,100.00
2018-11-13T06:52:55.552Z,100.00
2018-11-13T06:55:29.338Z,100.00
2018-11-13T06:57:59.107Z,100.00
2018-11-13T07:00:29.825Z,100.00
2018-11-13T07:02:59.332Z,100.00
2018-11-13T07:05:29.009Z,100.00
2018-11-13T07:07:58.534Z,100.00
2018-11-13T07:10:29.163Z,100.00
2018-11-13T07:12:59.186Z,100.00
2018-11-13T07:15:30.218Z,100.00
2018-11-13T07:18:01.931Z,100.00
2018-11-13T07:20:32.666Z,100.00
2018-11-13T07:23:02.324Z,100.00
2018-11-13T07:25:31.859Z,100.00
2018-11-13T07:28:01.392Z,100.00
2018-11-13T07:30:30.842Z,100.00
2018-11-13T07:33:00.157Z,100.00
2018-11-13T07:35:29.779Z,100.00
2018-11-13T07:38:00.668Z,100.00
2018-11-13T07:40:30.332Z,100.00
2018-11-13T07:42:59.785Z,99.98
2018-11-13T07:45:29.295Z,100.00
2018-11-13T07:47:59.080Z,100.00
2018-11-13T07:50:29.222Z,99.40
2018-11-13T07:52:58.790Z,99.21
2018-11-13T07:55:28.143Z,98.13
2018-11-13T07:57:57.624Z,97.50
2018-11-13T08:00:26.860Z,97.58
2018-11-13T08:02:56.973Z,97.35
2018-11-13T08:05:26.233Z,96.90
2018-11-13T08:07:56.154Z,96.90
2018-11-13T08:10:25.796Z,96.61
2018-11-13T08:12:55.290Z,95.75
2018-11-13T08:15:24.778Z,95.30
2018-11-13T08:17:54.327Z,94.98
2018-11-13T08:20:23.823Z,94.65
2018-11-13T08:22:53.301Z,95.21
2018-11-13T08:25:23.125Z,93.06
2018-11-13T08:27:52.496Z,91.00
2018-11-13T08:30:22.693Z,90.79
2018-11-13T08:32:52.327Z,91.42
2018-11-13T08:35:21.843Z,90.60
2018-11-13T08:37:51.672Z,90.01
2018-11-13T08:40:21.689Z,89.56
2018-11-13T08:42:51.587Z,89.51
2018-11-13T08:45:21.288Z,91.41
2018-11-13T08:47:51.393Z,91.85
2018-11-13T08:50:20.767Z,91.72
2018-11-13T08:52:50.688Z,92.35
2018-11-13T08:55:20.127Z,91.97
2018-11-13T08:57:50.075Z,92.15
2018-11-13T09:00:20.199Z,93.43
2018-11-13T09:02:50.251Z,92.70
2018-11-13T09:05:19.931Z,92.30
2018-11-13T09:07:49.294Z,92.22
2018-11-13T09:10:19.197Z,92.64
2018-11-13T09:12:48.923Z,92.50
2018-11-13T09:15:19.938Z,91.71
2018-11-13T09:17:49.383Z,92.57
2018-11-13T09:20:20.143Z,91.84
2018-11-13T09:22:50.168Z,92.19
2018-11-13T09:25:20.990Z,91.30
2018-11-13T09:27:50.872Z,91.33
2018-11-13T09:30:21.900Z,90.48
2018-11-13T09:32:51.383Z,90.75
2018-11-13T09:35:21.241Z,90.72
2018-11-13T09:37:50.733Z,89.79
2018-11-13T09:40:21.221Z,89.86
2018-11-13T09:42:52.308Z,88.10
2018-11-13T09:45:22.090Z,87.14
2018-11-13T09:47:52.320Z,85.56
2018-11-13T09:50:22.420Z,85.00
2018-11-13T09:52:52.875Z,84.18
2018-11-13T09:55:23.345Z,84.47
2018-11-13T09:57:52.568Z,84.83
2018-11-13T10:00:23.789Z,84.05
2018-11-13T10:03:01.178Z,83.15
2018-11-13T10:05:30.729Z,83.26
2018-11-13T10:08:00.774Z,82.98
2018-11-13T10:10:30.982Z,83.23
2018-11-13T10:13:00.395Z,82.33
2018-11-13T10:15:31.190Z,81.08
2018-11-13T10:18:01.043Z,78.39
2018-11-13T10:20:30.338Z,75.28
2018-11-13T10:23:00.349Z,75.71
2018-11-13T10:25:30.634Z,74.24
2018-11-13T10:28:00.093Z,72.50
2018-11-13T10:30:29.665Z,72.05
2018-11-13T10:32:59.182Z,71.31
2018-11-13T10:35:28.580Z,69.48
2018-11-13T10:37:58.355Z,71.14
2018-11-13T10:40:27.630Z,70.72
2018-11-13T10:42:56.927Z,72.56
2018-11-13T10:45:28.099Z,72.82
2018-11-13T10:47:57.930Z,72.77
2018-11-13T10:50:27.751Z,72.18
2018-11-13T10:52:57.515Z,73.48
2018-11-13T10:55:27.099Z,73.51
2018-11-13T10:57:56.623Z,73.04
2018-11-13T11:00:28.416Z,73.10
2018-11-13T11:03:03.309Z,74.33
2018-11-13T11:05:33.336Z,75.49
2018-11-13T11:08:03.037Z,76.15
2018-11-13T11:10:32.574Z,75.61
2018-11-13T11:13:02.321Z,75.42
2018-11-13T11:15:31.579Z,76.01
2018-11-13T11:18:01.353Z,76.78
2018-11-13T11:20:30.593Z,75.73
2018-11-13T11:22:59.897Z,76.20
2018-11-13T11:25:29.766Z,76.15
2018-11-13T11:27:59.314Z,74.97
2018-11-13T11:30:29.349Z,70.70
2018-11-13T11:32:58.838Z,71.87
2018-11-13T11:35:28.406Z,73.29
2018-11-13T11:37:57.910Z,68.49
2018-11-13T11:40:27.434Z,67.01
2018-11-13T11:42:56.703Z,66.42
2018-11-13T11:45:26.805Z,64.74
2018-11-13T11:47:56.339Z,63.58
2018-11-13T11:50:26.210Z,64.19
2018-11-13T11:52:55.534Z,64.39
2018-11-13T11:55:25.030Z,63.41
2018-11-13T11:57:54.333Z,63.01
2018-11-13T12:00:30.113Z,62.90
2018-11-13T12:02:59.311Z,62.44
2018-11-13T12:05:28.799Z,61.72
2018-11-13T12:07:58.723Z,62.65
2018-11-13T12:10:28.241Z,64.20
2018-11-13T12:12:57.765Z,65.16
2018-11-13T12:15:28.023Z,66.71
2018-11-13T12:17:57.361Z,66.57
2018-11-13T12:20:27.614Z,67.33
2018-11-13T12:22:57.242Z,64.82
2018-11-13T12:25:26.688Z,64.04
2018-11-13T12:27:56.248Z,61.93
2018-11-13T12:30:26.311Z,60.61
2018-11-13T12:32:55.853Z,59.39
2018-11-13T12:35:25.315Z,55.98
2018-11-13T12:37:55.047Z,55.93
2018-11-13T12:40:25.558Z,58.46
2018-11-13T12:42:55.283Z,57.51
2018-11-13T12:45:24.787Z,57.12
2018-11-13T12:47:54.699Z,56.17
2018-11-13T12:50:24.227Z,53.69
2018-11-13T12:52:54.322Z,53.65
2018-11-13T12:55:24.314Z,53.01
2018-11-13T12:57:53.724Z,55.79
2018-11-13T13:00:24.677Z,59.36
2018-11-13T13:02:54.623Z,61.47
2018-11-13T13:05:23.890Z,58.03
2018-11-13T13:07:53.566Z,56.70
2018-11-13T13:10:23.918Z,55.66
2018-11-13T13:12:53.218Z,55.59
2018-11-13T13:15:22.735Z,57.63
2018-11-13T13:17:52.211Z,60.24
2018-11-13T13:20:24.242Z,61.64
2018-11-13T13:22:53.728Z,63.76
2018-11-13T13:25:24.135Z,64.72
2018-11-13T13:27:53.512Z,64.22
2018-11-13T13:30:24.451Z,65.58
2018-11-13T13:32:54.383Z,66.32
2018-11-13T13:35:36.830Z,65.99
2018-11-13T13:38:07.799Z,65.77
2018-11-13T13:40:38.113Z,65.23
2018-11-13T13:43:08.606Z,63.56
2018-11-13T13:45:38.607Z,62.36
2018-11-13T13:48:08.435Z,61.42
2018-11-13T13:50:38.581Z,63.33
2018-11-13T13:53:09.070Z,63.69
2018-11-13T13:55:38.579Z,64.42
2018-11-13T13:58:08.075Z,64.85
2018-11-13T14:00:38.648Z,65.27
2018-11-13T14:03:09.339Z,66.12
2018-11-13T14:05:39.499Z,66.36
2018-11-13T14:08:09.948Z,65.54
2018-11-13T14:10:39.931Z,65.57
2018-11-13T14:13:09.188Z,65.47
2018-11-13T14:15:38.741Z,65.18
2018-11-13T14:18:08.454Z,65.58
2018-11-13T14:20:38.383Z,66.09
2018-11-13T14:23:07.589Z,64.97
2018-11-13T14:25:37.146Z,65.53
2018-11-13T14:28:07.066Z,65.61
2018-11-13T14:30:37.600Z,65.21
2018-11-13T14:33:08.554Z,66.26
2018-11-13T14:35:37.828Z,66.95
2018-11-13T14:38:07.851Z,67.65
2018-11-13T14:40:39.118Z,68.47
2018-11-13T14:43:09.016Z,69.21
2018-11-13T14:45:38.258Z,69.66
2018-11-13T14:48:08.728Z,69.82
2018-11-13T14:50:39.322Z,69.55
2018-11-13T14:53:09.544Z,69.33
2018-11-13T14:55:40.635Z,69.32
2018-11-13T14:58:12.104Z,69.91
2018-11-13T15:00:42.191Z,70.75
2018-11-13T15:03:13.230Z,70.31
2018-11-13T15:05:42.726Z,71.16
2018-11-13T15:08:12.756Z,71.80
2018-11-13T15:10:50.591Z,71.32
2018-11-13T15:13:21.147Z,71.98
2018-11-13T15:15:50.436Z,71.98
2018-11-13T15:18:19.636Z,72.29
2018-11-13T15:20:50.627Z,70.70
2018-11-13T15:23:20.120Z,70.98
2018-11-13T15:25:49.807Z,71.36
2018-11-13T15:28:19.346Z,71.74
2018-11-13T15:30:50.367Z,71.58
2018-11-13T15:33:21.657Z,72.17
2018-11-13T15:35:50.904Z,72.96
2018-11-13T15:38:20.175Z,73.34
2018-11-13T15:40:49.942Z,73.55
2018-11-13T15:43:20.027Z,74.01
2018-11-13T15:45:50.183Z,73.84
2018-11-13T15:48:19.685Z,75.36
2018-11-13T15:50:49.758Z,76.07
2018-11-13T15:53:19.327Z,75.37
2018-11-13T15:55:48.586Z,75.09
2018-11-13T15:58:17.900Z,76.08
2018-11-13T16:00:47.449Z,76.76
2018-11-13T16:03:21.641Z,75.35
2018-11-13T16:05:53.469Z,76.26
2018-11-13T16:08:23.288Z,77.14
2018-11-13T16:10:52.690Z,75.57
2018-11-13T16:13:22.475Z,76.22
2018-11-13T16:15:52.233Z,77.07
2018-11-13T16:18:23.448Z,76.50
2018-11-13T16:20:52.922Z,76.13
2018-11-13T16:23:22.367Z,76.51
2018-11-13T16:25:52.099Z,76.66
2018-11-13T16:28:21.338Z,76.98
2018-11-13T16:30:51.101Z,76.79
2018-11-13T16:33:20.261Z,77.65
2018-11-13T16:35:49.509Z,77.14
2018-11-13T16:38:19.102Z,76.79
2018-11-13T16:40:48.466Z,77.02
2018-11-13T16:43:18.155Z,77.78
2018-11-13T16:45:47.322Z,78.88
2018-11-13T16:48:16.828Z,79.16
2018-11-13T16:50:46.279Z,79.76
2018-11-13T16:53:16.482Z,80.33
2018-11-13T16:55:51.004Z,81.02
2018-11-13T16:58:20.814Z,80.50
2018-11-13T17:00:50.405Z,81.09
2018-11-13T17:03:20.594Z,80.65
2018-11-13T17:05:51.175Z,81.11
2018-11-13T17:08:21.253Z,80.83
2018-11-13T17:10:50.710Z,79.94
2018-11-13T17:13:20.291Z,82.30
2018-11-13T17:15:49.786Z,83.09
2018-11-13T17:18:19.019Z,83.78
2018-11-13T17:20:48.619Z,82.45
2018-11-13T17:23:18.545Z,82.68
2018-11-13T17:25:47.985Z,84.09
2018-11-13T17:28:18.330Z,84.78
2018-11-13T17:30:47.790Z,85.58
2018-11-13T17:33:17.088Z,86.22
2018-11-13T17:35:46.580Z,87.12
2018-11-13T17:38:16.544Z,87.15
2018-11-13T17:40:46.066Z,87.74
2018-11-13T17:43:15.544Z,87.79
2018-11-13T17:45:45.074Z,88.10
2018-11-13T17:48:14.223Z,88.45
2018-11-13T17:50:44.666Z,88.32
2018-11-13T17:53:14.399Z,87.72
2018-11-13T17:55:43.925Z,88.29
2018-11-13T17:58:14.760Z,87.95
2018-11-13T18:00:45.850Z,88.09
2018-11-13T18:03:16.349Z,87.86
2018-11-13T18:05:46.826Z,88.21
2018-11-13T18:08:16.382Z,88.28
2018-11-13T18:10:46.895Z,88.41
2018-11-13T18:13:16.620Z,88.29
2018-11-13T18:15:46.246Z,88.14
2018-11-13T18:18:15.760Z,88.46
2018-11-13T18:20:45.281Z,88.93
2018-11-13T18:23:14.970Z,88.93
2018-11-13T18:25:45.315Z,88.89
2018-11-13T18:28:15.451Z,88.91
2018-11-13T18:30:44.932Z,89.78
2018-11-13T18:33:14.913Z,90.53
2018-11-13T18:35:44.853Z,90.09
2018-11-13T18:38:16.833Z,89.54
2018-11-13T18:40:47.623Z,89.77
2018-11-13T18:43:17.748Z,89.89
2018-11-13T18:45:47.861Z,89.67
2018-11-13T18:48:17.973Z,90.30
2018-11-13T18:50:47.364Z,90.36
2018-11-13T18:53:17.155Z,90.39
2018-11-13T18:55:46.922Z,90.74
2018-11-13T18:58:16.979Z,90.74
2018-11-13T19:00:46.365Z,90.83
2018-11-13T19:03:16.450Z,91.20
2018-11-13T19:05:46.672Z,91.31
2018-11-13T19:08:16.106Z,91.26
2018-11-13T19:10:47.699Z,91.64
2018-11-13T19:13:24.504Z,92.04
2018-11-13T19:15:56.066Z,91.87
2018-11-13T19:18:25.713Z,92.21
2018-11-13T19:20:55.910Z,92.48
2018-11-13T19:23:25.240Z,92.74
2018-11-13T19:25:55.104Z,93.12
2018-11-13T19:28:24.655Z,92.85
2018-11-13T19:30:54.186Z,93.18
2018-11-13T19:33:23.639Z,93.45
2018-11-13T19:35:53.376Z,93.44
2018-11-13T19:38:22.854Z,93.42
2018-11-13T19:40:52.384Z,93.81
2018-11-13T19:43:22.067Z,94.04
2018-11-13T19:45:52.418Z,93.61
2018-11-13T19:48:21.907Z,94.42
2018-11-13T19:50:51.487Z,94.53
2018-11-13T19:53:20.984Z,94.26
2018-11-13T19:55:50.417Z,94.52
2018-11-13T19:58:19.932Z,94.65
2018-11-13T20:00:49.474Z,94.91
2018-11-13T20:03:18.983Z,94.95
2018-11-13T20:05:48.871Z,95.29
2018-11-13T20:08:19.138Z,95.44
2018-11-13T20:10:48.870Z,95.92
2018-11-13T20:13:18.409Z,96.06
2018-11-13T20:15:48.369Z,96.35
2018-11-13T20:18:18.434Z,96.48
2018-11-13T20:20:48.409Z,96.57
2018-11-13T20:23:17.855Z,96.96
2018-11-13T20:25:47.460Z,96.78
2018-11-13T20:28:17.866Z,97.24
2018-11-13T20:30:47.367Z,97.04
2018-11-13T20:33:16.575Z,97.40
2018-11-13T20:35:46.375Z,97.49
2018-11-13T20:38:15.897Z,97.70
2018-11-13T20:40:45.379Z,97.67
2018-11-13T20:43:15.085Z,97.75
2018-11-13T20:45:44.400Z,98.17
2018-11-13T20:48:14.114Z,98.14
2018-11-13T20:50:43.859Z,98.09
2018-11-13T20:53:13.981Z,98.50
2018-11-13T20:55:43.230Z,98.68
2018-11-13T20:58:12.792Z,98.66
2018-11-13T21:00:42.043Z,99.09
2018-11-13T21:03:11.569Z,99.08
2018-11-13T21:05:41.084Z,99.11
2018-11-13T21:08:10.597Z,99.43
2018-11-13T21:10:40.629Z,99.66
2018-11-13T21:13:10.640Z,99.48
2018-11-13T21:15:40.163Z,99.62
2018-11-13T21:18:10.036Z,99.81
2018-11-13T21:20:39.512Z,99.69
2018-11-13T21:23:08.756Z,99.81
2018-11-13T21:25:38.567Z,100.00
2018-11-13T21:28:07.878Z,100.00
2018-11-13T21:30:37.427Z,99.83
2018-11-13T21:33:06.879Z,99.83
2018-11-13T21:35:36.580Z,100.00
2018-11-13T21:38:06.682Z,100.00
2018-11-13T21:40:36.196Z,100.00
2018-11-13T21:43:06.125Z,100.00
2018-11-13T21:45:35.667Z,100.00
2018-11-13T21:48:05.548Z,100.00
2018-11-13T21:50:35.106Z,100.00
2018-11-13T21:53:04.573Z,100.00
2018-11-13T21:55:34.128Z,100.00
2018-11-13T21:58:03.701Z,100.00
2018-11-13T22:00:34.365Z,100.00
2018-11-13T22:03:06.596Z,100.00
2018-11-13T22:05:37.117Z,100.00
2018-11-13T22:08:06.498Z,100.00
2018-11-13T22:10:36.375Z,100.00
2018-11-13T22:13:05.974Z,100.00
2018-11-13T22:15:35.664Z,100.00
2018-11-13T22:18:05.541Z,100.00
2018-11-13T22:20:35.219Z,100.00
2018-11-13T22:23:04.771Z,100.00
2018-11-13T22:25:34.053Z,100.00
2018-11-13T22:28:03.634Z,100.00
2018-11-13T22:30:34.211Z,100.00
2018-11-13T22:33:03.634Z,100.00
2018-11-13T22:35:33.080Z,100.00
2018-11-13T22:38:02.802Z,100.00
2018-11-13T22:40:32.158Z,100.00
2018-11-13T22:43:02.419Z,100.00
2018-11-13T22:45:32.551Z,100.00
2018-11-13T22:48:02.040Z,100.00
2018-11-13T22:50:32.970Z,100.00
2018-11-13T22:53:02.580Z,100.00
2018-11-13T22:55:31.800Z,100.00
2018-11-13T22:58:02.538Z,100.00
2018-11-13T23:00:39.439Z,100.00
2018-11-13T23:03:10.519Z,100.00
2018-11-13T23:05:40.310Z,100.00
2018-11-13T23:08:11.016Z,100.00
2018-11-13T23:10:41.613Z,100.00
2018-11-13T23:13:11.733Z,100.00
2018-11-13T23:15:41.376Z,100.00
2018-11-13T23:18:11.284Z,100.00
2018-11-13T23:20:40.765Z,100.00
2018-11-13T23:23:09.975Z,100.00
2018-11-13T23:25:39.810Z,100.00
2018-11-13T23:28:09.499Z,100.00
2018-11-13T23:30:39.202Z,100.00
2018-11-13T23:33:09.028Z,100.00
2018-11-13T23:35:38.211Z,100.00
2018-11-13T23:38:08.347Z,100.00
2018-11-13T23:40:38.047Z,100.00
2018-11-13T23:43:07.940Z,100.00
2018-11-13T23:45:37.556Z,100.00
2018-11-13T23:48:07.637Z,100.00
2018-11-13T23:50:37.094Z,100.00
2018-11-13T23:53:07.206Z,100.00
2018-11-13T23:55:36.697Z,100.00
2018-11-13T23:58:06.125Z,100.00
